Terminal Aerodrome Forecast
Issued by NWS Shreveport, LA

Current Version | Previous Version | Text Only | Print | Product List | Glossary On
Versions: 1 2 3 4 5 6 7 8 9 10 11 12 13 14 15 16 17
635
FTUS44 KSHV 251147
TAFTXK
TAF
KTXK 251147Z 2512/2612 VRB03KT P6SM SCT025
      TEMPO 2513/2515 BKN030
     FM251500 21010KT P6SM VCSH SCT035
     FM251800 20011KT P6SM SCT045
     FM260200 18007KT P6SM SKC=

USA.gov is the U.S. government's official web portal to all federal, state and local government web resources and services.